sensor_id;sensor_type;location;lat;lon;timestamp;temperature;humidity
6293;DHT22;3179;54.350;10.102;2023-05-29T13:41:09;28.80;70.20
6293;DHT22;3179;54.350;10.102;2023-05-29T13:43:36;28.30;76.00
6293;DHT22;3179;54.350;10.102;2023-05-29T13:46:03;28.00;76.70
6293;DHT22;3179;54.350;10.102;2023-05-29T13:48:30;27.80;77.40
6293;DHT22;3179;54.350;10.102;2023-05-29T13:50:59;27.80;77.10
6293;DHT22;3179;54.350;10.102;2023-05-29T13:53:26;27.90;77.30
6293;DHT22;3179;54.350;10.102;2023-05-29T13:55:53;27.90;76.40
6293;DHT22;3179;54.350;10.102;2023-05-29T13:58:21;28.00;75.80
6293;DHT22;3179;54.350;10.102;2023-05-29T14:00:47;28.00;74.90
6293;DHT22;3179;54.350;10.102;2023-05-29T14:03:14;28.00;74.80
6293;DHT22;3179;54.350;10.102;2023-05-29T14:05:41;28.10;75.00
6293;DHT22;3179;54.350;10.102;2023-05-29T14:08:07;28.20;74.50
6293;DHT22;3179;54.350;10.102;2023-05-29T14:10:34;28.30;73.90
6293;DHT22;3179;54.350;10.102;2023-05-29T14:13:01;28.40;73.80
6293;DHT22;3179;54.350;10.102;2023-05-29T14:15:29;28.50;73.20
6293;DHT22;3179;54.350;10.102;2023-05-29T14:17:56;28.60;71.50
6293;DHT22;3179;54.350;10.102;2023-05-29T14:20:22;28.70;72.50
6293;DHT22;3179;54.350;10.102;2023-05-29T14:22:49;28.80;71.90
6293;DHT22;3179;54.350;10.102;2023-05-29T14:25:16;28.70;71.30
6293;DHT22;3179;54.350;10.102;2023-05-29T14:27:43;28.60;71.20
6293;DHT22;3179;54.350;10.102;2023-05-29T14:30:10;28.50;71.00
6293;DHT22;3179;54.350;10.102;2023-05-29T14:32:38;28.40;70.70
6293;DHT22;3179;54.350;10.102;2023-05-29T14:35:07;28.50;70.00
6293;DHT22;3179;54.350;10.102;2023-05-29T14:37:34;28.60;70.10
6293;DHT22;3179;54.350;10.102;2023-05-29T14:40:01;28.60;70.20
6293;DHT22;3179;54.350;10.102;2023-05-29T14:42:28;28.70;69.60
6293;DHT22;3179;54.350;10.102;2023-05-29T14:44:56;28.70;69.60
6293;DHT22;3179;54.350;10.102;2023-05-29T14:47:22;28.70;70.10
6293;DHT22;3179;54.350;10.102;2023-05-29T14:49:50;28.50;70.10
6293;DHT22;3179;54.350;10.102;2023-05-29T14:52:17;28.30;70.00
6293;DHT22;3179;54.350;10.102;2023-05-29T14:54:44;28.00;70.60
6293;DHT22;3179;54.350;10.102;2023-05-29T14:57:11;27.60;71.00
6293;DHT22;3179;54.350;10.102;2023-05-29T14:59:37;27.40;71.00
6293;DHT22;3179;54.350;10.102;2023-05-29T15:02:05;27.50;70.40
6293;DHT22;3179;54.350;10.102;2023-05-29T15:04:32;27.90;70.10
6293;DHT22;3179;54.350;10.102;2023-05-29T15:07:00;28.30;69.10
6293;DHT22;3179;54.350;10.102;2023-05-29T15:09:27;28.60;68.20
6293;DHT22;3179;54.350;10.102;2023-05-29T15:11:54;28.90;68.60
6293;DHT22;3179;54.350;10.102;2023-05-29T15:14:21;29.10;68.10
6293;DHT22;3179;54.350;10.102;2023-05-29T15:16:48;29.10;67.60
6293;DHT22;3179;54.350;10.102;2023-05-29T15:19:14;29.10;68.00
6293;DHT22;3179;54.350;10.102;2023-05-29T15:21:41;29.10;67.90
6293;DHT22;3179;54.350;10.102;2023-05-29T15:24:09;29.00;67.70
6293;DHT22;3179;54.350;10.102;2023-05-29T15:26:36;28.90;66.70
6293;DHT22;3179;54.350;10.102;2023-05-29T15:29:03;28.70;68.30
6293;DHT22;3179;54.350;10.102;2023-05-29T15:31:30;28.30;67.90
6293;DHT22;3179;54.350;10.102;2023-05-29T15:33:56;27.90;68.30
6293;DHT22;3179;54.350;10.102;2023-05-29T15:36:23;27.70;68.80
6293;DHT22;3179;54.350;10.102;2023-05-29T15:38:50;27.40;68.80
6293;DHT22;3179;54.350;10.102;2023-05-29T15:41:18;27.10;69.10
6293;DHT22;3179;54.350;10.102;2023-05-29T15:43:45;27.10;68.10
6293;DHT22;3179;54.350;10.102;2023-05-29T15:46:12;27.00;68.90
6293;DHT22;3179;54.350;10.102;2023-05-29T15:48:39;27.20;69.10
6293;DHT22;3179;54.350;10.102;2023-05-29T15:51:05;27.20;68.20
6293;DHT22;3179;54.350;10.102;2023-05-29T15:53:32;27.00;68.60
6293;DHT22;3179;54.350;10.102;2023-05-29T15:55:59;26.70;68.00
6293;DHT22;3179;54.350;10.102;2023-05-29T15:58:27;26.50;67.90
6293;DHT22;3179;54.350;10.102;2023-05-29T16:00:54;26.70;67.30
6293;DHT22;3179;54.350;10.102;2023-05-29T16:03:21;27.00;67.60
6293;DHT22;3179;54.350;10.102;2023-05-29T16:05:47;27.20;66.80
6293;DHT22;3179;54.350;10.102;2023-05-29T16:08:14;27.10;67.20
6293;DHT22;3179;54.350;10.102;2023-05-29T16:10:41;27.10;67.90
6293;DHT22;3179;54.350;10.102;2023-05-29T16:13:08;26.80;67.20
6293;DHT22;3179;54.350;10.102;2023-05-29T16:15:36;26.70;67.40
6293;DHT22;3179;54.350;10.102;2023-05-29T16:18:03;26.60;66.70
6293;DHT22;3179;54.350;10.102;2023-05-29T16:20:29;26.40;67.00
6293;DHT22;3179;54.350;10.102;2023-05-29T16:22:56;26.20;67.20
6293;DHT22;3179;54.350;10.102;2023-05-29T16:25:23;26.00;67.10
6293;DHT22;3179;54.350;10.102;2023-05-29T16:27:50;25.80;66.80
6293;DHT22;3179;54.350;10.102;2023-05-29T16:30:17;25.70;68.00
6293;DHT22;3179;54.350;10.102;2023-05-29T16:32:45;25.60;67.40
6293;DHT22;3179;54.350;10.102;2023-05-29T16:35:12;25.40;66.20
6293;DHT22;3179;54.350;10.102;2023-05-29T16:37:39;25.40;66.90
6293;DHT22;3179;54.350;10.102;2023-05-29T16:40:06;25.30;67.40
6293;DHT22;3179;54.350;10.102;2023-05-29T16:42:33;25.20;67.20
6293;DHT22;3179;54.350;10.102;2023-05-29T16:45:00;25.20;67.50
6293;DHT22;3179;54.350;10.102;2023-05-29T16:47:27;25.10;67.30
6293;DHT22;3179;54.350;10.102;2023-05-29T16:49:55;25.00;67.70
6293;DHT22;3179;54.350;10.102;2023-05-29T16:52:23;24.90;67.00
6293;DHT22;3179;54.350;10.102;2023-05-29T16:54:50;24.80;67.70
6293;DHT22;3179;54.350;10.102;2023-05-29T16:57:17;24.70;68.00
6293;DHT22;3179;54.350;10.102;2023-05-29T16:59:44;24.60;68.00
6293;DHT22;3179;54.350;10.102;2023-05-29T17:02:11;24.50;68.00
6293;DHT22;3179;54.350;10.102;2023-05-29T17:04:37;24.50;68.80
6293;DHT22;3179;54.350;10.102;2023-05-29T17:07:06;24.40;68.70
6293;DHT22;3179;54.350;10.102;2023-05-29T17:09:33;24.30;68.30
6293;DHT22;3179;54.350;10.102;2023-05-29T17:12:00;24.20;67.80
6293;DHT22;3179;54.350;10.102;2023-05-29T17:14:27;24.20;68.40
6293;DHT22;3179;54.350;10.102;2023-05-29T17:16:54;24.10;67.70
6293;DHT22;3179;54.350;10.102;2023-05-29T17:19:20;24.10;67.90
6293;DHT22;3179;54.350;10.102;2023-05-29T17:21:47;24.00;68.30
6293;DHT22;3179;54.350;10.102;2023-05-29T17:24:15;23.90;67.70
6293;DHT22;3179;54.350;10.102;2023-05-29T17:26:42;23.80;67.70
6293;DHT22;3179;54.350;10.102;2023-05-29T17:29:09;23.70;67.90
6293;DHT22;3179;54.350;10.102;2023-05-29T17:31:36;23.70;68.70
6293;DHT22;3179;54.350;10.102;2023-05-29T17:34:03;23.60;69.10
6293;DHT22;3179;54.350;10.102;2023-05-29T17:36:30;23.60;69.10
6293;DHT22;3179;54.350;10.102;2023-05-29T17:38:57;23.60;69.00
6293;DHT22;3179;54.350;10.102;2023-05-29T17:41:25;23.60;69.40
6293;DHT22;3179;54.350;10.102;2023-05-29T17:43:52;23.50;69.50
6293;DHT22;3179;54.350;10.102;2023-05-29T17:46:19;23.40;69.70
6293;DHT22;3179;54.350;10.102;2023-05-29T17:48:46;23.30;69.90
6293;DHT22;3179;54.350;10.102;2023-05-29T17:51:14;23.20;70.30
6293;DHT22;3179;54.350;10.102;2023-05-29T17:53:41;23.20;70.50
6293;DHT22;3179;54.350;10.102;2023-05-29T17:56:08;23.10;70.20
6293;DHT22;3179;54.350;10.102;2023-05-29T17:58:36;23.10;70.00
6293;DHT22;3179;54.350;10.102;2023-05-29T18:01:03;23.00;70.10
6293;DHT22;3179;54.350;10.102;2023-05-29T18:03:30;22.90;69.90
6293;DHT22;3179;54.350;10.102;2023-05-29T18:05:57;22.90;69.90
6293;DHT22;3179;54.350;10.102;2023-05-29T18:08:24;22.80;69.90
6293;DHT22;3179;54.350;10.102;2023-05-29T18:10:51;22.70;69.20
6293;DHT22;3179;54.350;10.102;2023-05-29T18:13:17;22.70;69.10
6293;DHT22;3179;54.350;10.102;2023-05-29T18:15:46;22.60;68.90
6293;DHT22;3179;54.350;10.102;2023-05-29T18:18:12;22.60;68.80
6293;DHT22;3179;54.350;10.102;2023-05-29T18:20:39;22.50;69.20
6293;DHT22;3179;54.350;10.102;2023-05-29T18:23:06;22.40;69.10
6293;DHT22;3179;54.350;10.102;2023-05-29T18:25:33;22.30;69.20
6293;DHT22;3179;54.350;10.102;2023-05-29T18:28:01;22.20;68.70
6293;DHT22;3179;54.350;10.102;2023-05-29T18:30:27;22.20;68.90
6293;DHT22;3179;54.350;10.102;2023-05-29T18:32:55;22.10;68.50
6293;DHT22;3179;54.350;10.102;2023-05-29T18:35:26;22.10;68.00
6293;DHT22;3179;54.350;10.102;2023-05-29T18:37:52;22.00;68.20
6293;DHT22;3179;54.350;10.102;2023-05-29T18:40:19;22.00;68.50
6293;DHT22;3179;54.350;10.102;2023-05-29T18:42:46;21.90;68.40
6293;DHT22;3179;54.350;10.102;2023-05-29T18:45:13;21.90;68.50
6293;DHT22;3179;54.350;10.102;2023-05-29T18:47:40;21.80;68.90
6293;DHT22;3179;54.350;10.102;2023-05-29T18:50:09;21.70;69.00
6293;DHT22;3179;54.350;10.102;2023-05-29T18:52:36;21.70;69.50
6293;DHT22;3179;54.350;10.102;2023-05-29T18:55:03;21.60;69.70
6293;DHT22;3179;54.350;10.102;2023-05-29T18:57:30;21.50;70.40
6293;DHT22;3179;54.350;10.102;2023-05-29T18:59:57;21.40;70.50
6293;DHT22;3179;54.350;10.102;2023-05-29T19:02:23;21.40;70.90
6293;DHT22;3179;54.350;10.102;2023-05-29T19:04:50;21.30;71.40
6293;DHT22;3179;54.350;10.102;2023-05-29T19:07:18;21.30;71.90
6293;DHT22;3179;54.350;10.102;2023-05-29T19:09:45;21.20;72.20
6293;DHT22;3179;54.350;10.102;2023-05-29T19:12:12;21.10;72.70
6293;DHT22;3179;54.350;10.102;2023-05-29T19:14:38;21.10;73.20
6293;DHT22;3179;54.350;10.102;2023-05-29T19:17:05;21.00;73.40
6293;DHT22;3179;54.350;10.102;2023-05-29T19:19:35;20.90;73.60
6293;DHT22;3179;54.350;10.102;2023-05-29T19:22:02;20.90;73.90
6293;DHT22;3179;54.350;10.102;2023-05-29T19:24:30;20.80;74.10
6293;DHT22;3179;54.350;10.102;2023-05-29T19:26:57;20.70;74.30
6293;DHT22;3179;54.350;10.102;2023-05-29T19:29:24;20.60;74.50
6293;DHT22;3179;54.350;10.102;2023-05-29T19:31:51;20.60;74.80
6293;DHT22;3179;54.350;10.102;2023-05-29T19:34:18;20.50;74.80
6293;DHT22;3179;54.350;10.102;2023-05-29T19:36:47;20.50;75.00
6293;DHT22;3179;54.350;10.102;2023-05-29T19:39:14;20.40;75.10
6293;DHT22;3179;54.350;10.102;2023-05-29T19:41:42;20.30;75.20
6293;DHT22;3179;54.350;10.102;2023-05-29T19:44:09;20.30;75.50
6293;DHT22;3179;54.350;10.102;2023-05-29T19:46:35;20.20;75.50
6293;DHT22;3179;54.350;10.102;2023-05-29T19:49:04;20.20;75.80
6293;DHT22;3179;54.350;10.102;2023-05-29T19:51:31;20.10;76.00
6293;DHT22;3179;54.350;10.102;2023-05-29T19:53:58;20.00;76.60
6293;DHT22;3179;54.350;10.102;2023-05-29T19:56:25;19.90;76.10
6293;DHT22;3179;54.350;10.102;2023-05-29T19:58:54;19.90;76.30
6293;DHT22;3179;54.350;10.102;2023-05-29T20:01:20;19.80;76.40
6293;DHT22;3179;54.350;10.102;2023-05-29T20:03:47;19.80;76.40
6293;DHT22;3179;54.350;10.102;2023-05-29T20:06:14;19.70;76.50
6293;DHT22;3179;54.350;10.102;2023-05-29T20:08:42;19.60;76.60
6293;DHT22;3179;54.350;10.102;2023-05-29T20:11:09;19.50;76.80
6293;DHT22;3179;54.350;10.102;2023-05-29T20:13:36;19.50;77.10
6293;DHT22;3179;54.350;10.102;2023-05-29T20:16:04;19.40;77.20
6293;DHT22;3179;54.350;10.102;2023-05-29T20:18:31;19.40;77.60
6293;DHT22;3179;54.350;10.102;2023-05-29T20:20:58;19.30;77.60
6293;DHT22;3179;54.350;10.102;2023-05-29T20:23:25;19.30;77.90
6293;DHT22;3179;54.350;10.102;2023-05-29T20:25:52;19.20;78.10
6293;DHT22;3179;54.350;10.102;2023-05-29T20:28:19;19.20;78.20
6293;DHT22;3179;54.350;10.102;2023-05-29T20:30:46;19.10;78.60
6293;DHT22;3179;54.350;10.102;2023-05-29T20:33:14;19.00;78.80
6293;DHT22;3179;54.350;10.102;2023-05-29T20:35:41;19.00;79.20
6293;DHT22;3179;54.350;10.102;2023-05-29T20:38:10;18.90;79.20
6293;DHT22;3179;54.350;10.102;2023-05-29T20:40:37;18.90;79.40
6293;DHT22;3179;54.350;10.102;2023-05-29T20:43:04;18.80;79.60
6293;DHT22;3179;54.350;10.102;2023-05-29T20:45:32;18.80;79.80
6293;DHT22;3179;54.350;10.102;2023-05-29T20:47:58;18.70;80.10
6293;DHT22;3179;54.350;10.102;2023-05-29T20:50:27;18.70;80.20
6293;DHT22;3179;54.350;10.102;2023-05-29T20:52:53;18.60;80.60
6293;DHT22;3179;54.350;10.102;2023-05-29T20:55:20;18.60;80.90
6293;DHT22;3179;54.350;10.102;2023-05-29T20:57:47;18.50;80.90
6293;DHT22;3179;54.350;10.102;2023-05-29T21:00:14;18.50;81.10
6293;DHT22;3179;54.350;10.102;2023-05-29T21:02:42;18.50;81.40
6293;DHT22;3179;54.350;10.102;2023-05-29T21:05:09;18.50;81.60
6293;DHT22;3179;54.350;10.102;2023-05-29T21:07:37;18.40;81.80
6293;DHT22;3179;54.350;10.102;2023-05-29T21:10:07;18.40;82.30
6293;DHT22;3179;54.350;10.102;2023-05-29T21:12:34;18.40;82.30
6293;DHT22;3179;54.350;10.102;2023-05-29T21:15:02;18.30;82.50
6293;DHT22;3179;54.350;10.102;2023-05-29T21:17:29;18.30;82.80
6293;DHT22;3179;54.350;10.102;2023-05-29T21:19:56;18.20;83.00
6293;DHT22;3179;54.350;10.102;2023-05-29T21:22:26;18.10;83.10
6293;DHT22;3179;54.350;10.102;2023-05-29T21:24:54;18.10;83.30
6293;DHT22;3179;54.350;10.102;2023-05-29T21:27:21;18.00;83.80
6293;DHT22;3179;54.350;10.102;2023-05-29T21:29:48;18.00;83.70
6293;DHT22;3179;54.350;10.102;2023-05-29T21:32:15;18.00;83.80
6293;DHT22;3179;54.350;10.102;2023-05-29T21:34:43;17.90;83.80
6293;DHT22;3179;54.350;10.102;2023-05-29T21:37:09;17.90;84.00
6293;DHT22;3179;54.350;10.102;2023-05-29T21:39:36;17.90;84.40
6293;DHT22;3179;54.350;10.102;2023-05-29T21:42:05;17.90;84.70
6293;DHT22;3179;54.350;10.102;2023-05-29T21:44:33;17.80;85.10
6293;DHT22;3179;54.350;10.102;2023-05-29T21:47:00;17.80;85.00
6293;DHT22;3179;54.350;10.102;2023-05-29T21:49:27;17.70;85.10
6293;DHT22;3179;54.350;10.102;2023-05-29T21:51:54;17.70;85.40
6293;DHT22;3179;54.350;10.102;2023-05-29T21:54:21;17.60;85.60
6293;DHT22;3179;54.350;10.102;2023-05-29T21:56:48;17.60;85.80
6293;DHT22;3179;54.350;10.102;2023-05-29T21:59:16;17.50;85.90
6293;DHT22;3179;54.350;10.102;2023-05-29T22:01:43;17.50;86.20
6293;DHT22;3179;54.350;10.102;2023-05-29T22:04:09;17.50;86.10
6293;DHT22;3179;54.350;10.102;2023-05-29T22:06:36;17.40;86.30
6293;DHT22;3179;54.350;10.102;2023-05-29T22:09:03;17.40;86.50
6293;DHT22;3179;54.350;10.102;2023-05-29T22:11:30;17.30;86.80
6293;DHT22;3179;54.350;10.102;2023-05-29T22:13:59;17.30;86.80
6293;DHT22;3179;54.350;10.102;2023-05-29T22:16:27;17.30;86.90
6293;DHT22;3179;54.350;10.102;2023-05-29T22:18:54;17.30;87.40
6293;DHT22;3179;54.350;10.102;2023-05-29T22:21:20;17.20;87.20
6293;DHT22;3179;54.350;10.102;2023-05-29T22:23:50;17.10;87.20
6293;DHT22;3179;54.350;10.102;2023-05-29T22:26:17;17.10;87.40
6293;DHT22;3179;54.350;10.102;2023-05-29T22:28:45;17.10;87.60
6293;DHT22;3179;54.350;10.102;2023-05-29T22:31:12;17.00;87.60
6293;DHT22;3179;54.350;10.102;2023-05-29T22:33:40;17.00;87.80
6293;DHT22;3179;54.350;10.102;2023-05-29T22:36:08;16.90;88.00
6293;DHT22;3179;54.350;10.102;2023-05-29T22:38:35;16.90;88.10
6293;DHT22;3179;54.350;10.102;2023-05-29T22:41:01;16.90;88.20
6293;DHT22;3179;54.350;10.102;2023-05-29T22:43:29;16.80;88.40
6293;DHT22;3179;54.350;10.102;2023-05-29T22:45:57;16.80;88.60
6293;DHT22;3179;54.350;10.102;2023-05-29T22:48:24;16.80;88.70
6293;DHT22;3179;54.350;10.102;2023-05-29T22:50:52;16.70;88.60
6293;DHT22;3179;54.350;10.102;2023-05-29T22:53:20;16.70;88.80
6293;DHT22;3179;54.350;10.102;2023-05-29T22:55:48;16.60;88.80
6293;DHT22;3179;54.350;10.102;2023-05-29T22:58:15;16.60;89.00
6293;DHT22;3179;54.350;10.102;2023-05-29T23:00:43;16.60;89.20
6293;DHT22;3179;54.350;10.102;2023-05-29T23:03:11;16.50;89.30
6293;DHT22;3179;54.350;10.102;2023-05-29T23:05:38;16.50;89.40
6293;DHT22;3179;54.350;10.102;2023-05-29T23:08:07;16.40;89.50
6293;DHT22;3179;54.350;10.102;2023-05-29T23:10:35;16.40;89.80
6293;DHT22;3179;54.350;10.102;2023-05-29T23:13:02;16.30;89.70
6293;DHT22;3179;54.350;10.102;2023-05-29T23:15:29;16.40;90.00
6293;DHT22;3179;54.350;10.102;2023-05-29T23:17:57;16.30;89.90
6293;DHT22;3179;54.350;10.102;2023-05-29T23:20:25;16.30;90.00
6293;DHT22;3179;54.350;10.102;2023-05-29T23:22:52;16.20;90.10
6293;DHT22;3179;54.350;10.102;2023-05-29T23:25:20;16.20;90.20
6293;DHT22;3179;54.350;10.102;2023-05-29T23:27:49;16.20;90.30
6293;DHT22;3179;54.350;10.102;2023-05-29T23:30:15;16.10;90.20
6293;DHT22;3179;54.350;10.102;2023-05-29T23:32:42;16.10;90.30
6293;DHT22;3179;54.350;10.102;2023-05-29T23:35:09;16.10;90.30
6293;DHT22;3179;54.350;10.102;2023-05-29T23:37:36;16.10;90.50
6293;DHT22;3179;54.350;10.102;2023-05-29T23:40:04;16.00;90.50
6293;DHT22;3179;54.350;10.102;2023-05-29T23:42:34;16.00;90.60
6293;DHT22;3179;54.350;10.102;2023-05-29T23:45:01;16.00;90.70
6293;DHT22;3179;54.350;10.102;2023-05-29T23:47:28;16.00;90.90
6293;DHT22;3179;54.350;10.102;2023-05-29T23:49:55;16.00;90.60
6293;DHT22;3179;54.350;10.102;2023-05-29T23:52:23;15.90;90.70
6293;DHT22;3179;54.350;10.102;2023-05-29T23:54:50;15.90;90.70
6293;DHT22;3179;54.350;10.102;2023-05-29T23:57:17;15.90;90.70
6293;DHT22;3179;54.350;10.102;2023-05-29T23:59:47;15.80;90.90
